Time;durP1;ratioP1;P1;durP2;ratioP2;P2;SDS_P1;SDS_P2;PMS_P1;PMS_P2;Temp;Humidity;BMP_temperature;BMP_pressure;BME280_temperature;BME280_humidity;BME280_pressure;Samples;Min_cycle;Max_cycle;Signal;HPM_P1;HPM_P2
2022/10/28 00:01:48;;;;;;;5.50;3.63;;;;;;;-5.56;69.53;98210.94;6320574;28;20044;-63
2022/10/28 00:04:52;;;;;;;5.75;3.35;;;;;;;-5.34;69.52;98216.50;6320744;28;20036;-64
2022/10/28 00:07:53;;;;;;;5.13;3.50;;;;;;;-5.16;69.15;98211.69;6320042;28;20050;-64
2022/10/28 00:11:13;;;;;;;5.03;3.38;;;;;;;-4.84;68.58;98211.41;6319916;28;20125;-63
2022/10/28 00:14:17;;;;;;;3.33;2.03;;;;;;;-4.83;68.66;98210.59;6319967;28;20063;-63
2022/10/28 00:17:23;;;;;;;3.42;1.85;;;;;;;-4.76;68.54;98205.56;6320441;28;20040;-63
2022/10/28 00:20:25;;;;;;;;;;;;;;;-4.64;68.13;98212.63;6320663;28;20051;-64
2022/10/28 00:23:26;;;;;;;2.45;1.63;;;;;;;-4.59;67.68;98205.84;6320364;28;20272;-63
2022/10/28 00:26:31;;;;;;;3.40;1.83;;;;;;;-4.64;67.63;98215.19;6320297;28;20036;-63
2022/10/28 00:29:35;;;;;;;1.50;1.40;;;;;;;-4.35;66.59;98212.22;6335959;28;20042;-63
2022/10/28 00:32:38;;;;;;;2.75;1.42;;;;;;;-4.33;66.67;98220.81;6319911;28;20043;-64
2022/10/28 00:35:43;;;;;;;1.70;1.40;;;;;;;-4.20;66.48;98215.03;6320166;28;20047;-64
2022/10/28 00:38:49;;;;;;;1.70;0.93;;;;;;;-4.09;65.67;98205.75;6335762;28;20129;-64
2022/10/28 00:41:56;;;;;;;2.33;1.90;;;;;;;-4.10;65.70;98200.63;6319416;28;20427;-64
2022/10/28 00:44:59;;;;;;;1.40;1.15;;;;;;;-3.95;65.01;98195.69;6318553;28;20478;-63
2022/10/28 00:48:07;;;;;;;1.60;1.50;;;;;;;-3.73;64.09;98201.97;6320377;28;20040;-64
2022/10/28 00:51:12;;;;;;;1.58;1.13;;;;;;;-3.81;63.98;98193.28;6319683;28;20052;-63
2022/10/28 00:54:16;;;;;;;1.73;1.38;;;;;;;-3.62;63.10;98199.53;6319268;28;20048;-63
2022/10/28 00:57:23;;;;;;;;;;;;;;;-3.45;62.67;98192.88;6319813;28;20044;-64
2022/10/28 01:00:27;;;;;;;1.88;1.55;;;;;;;-3.69;63.61;98180.56;6319973;28;19920;-63
2022/10/28 01:03:31;;;;;;;1.30;1.20;;;;;;;-3.68;63.40;98190.03;6319511;28;20060;-64
2022/10/28 01:06:33;;;;;;;0.75;0.75;;;;;;;-3.61;63.26;98191.81;6319518;28;20045;-63
2022/10/28 01:09:40;;;;;;;1.20;1.10;;;;;;;-3.65;63.61;98184.06;6320209;28;20075;-64
2022/10/28 01:13:11;;;;;;;1.73;0.88;;;;;;;-3.30;62.40;98181.91;6319597;28;20056;-64
2022/10/28 01:16:45;;;;;;;1.52;1.08;;;;;;;-3.14;61.54;98193.22;6319470;28;20133;-63
2022/10/28 01:20:15;;;;;;;2.03;1.17;;;;;;;-3.51;62.36;98197.06;6319274;28;20070;-63
2022/10/28 01:23:37;;;;;;;2.33;1.48;;;;;;;-3.54;61.89;98204.75;6320686;28;20036;-63
2022/10/28 01:27:09;;;;;;;4.35;1.85;;;;;;;-3.69;62.20;98201.16;6323830;28;20043;-64
2022/10/28 01:30:18;;;;;;;2.97;1.77;;;;;;;-4.02;62.85;98188.72;6323626;28;20054;-64
2022/10/28 01:33:27;;;;;;;3.15;1.75;;;;;;;-4.17;63.37;98194.50;6323835;28;20043;-62
2022/10/28 01:37:00;;;;;;;1.77;1.30;;;;;;;-4.15;63.70;98192.81;6323829;28;20043;-63
2022/10/28 01:40:31;;;;;;;2.75;1.98;;;;;;;-4.29;64.06;98190.06;6312902;28;20142;-63
2022/10/28 01:43:45;;;;;;;3.00;1.80;;;;;;;-4.32;64.31;98196.84;6322310;28;20080;-64
2022/10/28 01:47:00;;;;;;;3.55;1.92;;;;;;;-4.33;64.51;98187.41;6323449;28;20145;-63
2022/10/28 01:50:32;;;;;;;4.00;2.22;;;;;;;-4.40;64.32;98185.59;6323679;28;20040;-63
2022/10/28 01:53:40;;;;;;;4.03;2.53;;;;;;;-4.50;64.28;98192.31;6312216;28;20541;-63
2022/10/28 01:56:48;;;;;;;2.92;2.33;;;;;;;-4.58;64.88;98187.03;6323222;28;20422;-64
2022/10/28 01:59:52;;;;;;;6.50;2.97;;;;;;;-4.57;64.17;98178.50;6323418;28;20047;-64
2022/10/28 02:02:56;;;;;;;4.80;3.25;;;;;;;-4.73;65.00;98181.66;6323237;28;20415;-64
2022/10/28 02:06:14;;;;;;;4.32;2.58;;;;;;;-4.92;65.55;98180.50;6323527;28;20055;-64
2022/10/28 02:09:36;;;;;;;3.78;2.15;;;;;;;-4.86;65.81;98172.88;6322922;28;20123;-64
2022/10/28 02:12:41;;;;;;;1.90;1.48;;;;;;;-4.76;66.17;98181.59;6322958;28;20040;-65
2022/10/28 02:16:01;;;;;;;2.28;1.90;;;;;;;-4.77;66.16;98174.75;6322590;28;20143;-63
2022/10/28 02:19:11;;;;;;;1.88;1.55;;;;;;;-4.67;65.39;98181.78;6322755;28;20040;-63
2022/10/28 02:22:21;;;;;;;3.25;2.00;;;;;;;-4.76;65.62;98181.59;6322572;28;20056;-64
2022/10/28 02:25:32;;;;;;;3.17;2.70;;;;;;;-4.89;65.87;98174.53;6322333;28;20126;-63
2022/10/28 02:28:49;;;;;;;2.45;2.25;;;;;;;-5.05;66.15;98179.41;6322709;28;20126;-63
2022/10/28 02:31:56;;;;;;;;;;;;;;;-5.22;65.64;98188.50;6322634;28;20050;-64
2022/10/28 02:35:00;;;;;;;3.15;2.30;;;;;;;-5.38;66.49;98169.38;6321065;28;19926;-64
2022/10/28 02:38:14;;;;;;;5.03;3.42;;;;;;;-5.33;66.96;98172.03;6322307;28;20047;-64
2022/10/28 02:41:23;;;;;;;5.60;3.33;;;;;;;-5.50;66.94;98181.97;6321302;28;20457;-64
2022/10/28 02:44:33;;;;;;;3.00;2.17;;;;;;;-5.49;67.82;98181.13;6322083;28;20052;-64
2022/10/28 02:47:43;;;;;;;7.00;3.50;;;;;;;-5.43;68.04;98182.13;6322147;28;20040;-63
2022/10/28 02:50:59;;;;;;;7.93;3.67;;;;;;;-5.45;67.75;98183.81;6322226;28;20065;-64
2022/10/28 02:54:11;;;;;;;5.10;2.90;;;;;;;-5.40;68.42;98191.59;6322075;28;20427;-64
2022/10/28 02:57:20;;;;;;;6.20;3.10;;;;;;;-5.47;67.56;98180.34;6321926;28;20470;-63
2022/10/28 03:00:23;;;;;;;3.40;2.50;;;;;;;-5.40;68.42;98185.59;6321302;28;20055;-63
2022/10/28 03:03:28;;;;;;;4.50;2.80;;;;;;;-5.28;68.19;98170.44;6321647;28;20157;-64
2022/10/28 03:06:34;;;;;;;2.95;1.95;;;;;;;-5.03;68.30;98171.75;6321328;28;20084;-63
2022/10/28 03:09:35;;;;;;;4.45;2.65;;;;;;;-4.98;68.04;98170.97;6321117;28;20083;-63
2022/10/28 03:12:40;;;;;;;3.55;2.30;;;;;;;-4.93;68.20;98171.03;6321403;28;20036;-63
2022/10/28 03:15:47;;;;;;;7.60;3.90;;;;;;;-4.90;68.37;98175.38;6320940;28;20075;-63
2022/10/28 03:18:49;;;;;;;7.10;3.95;;;;;;;-4.66;67.45;98162.94;6320746;28;20048;-63
2022/10/28 03:21:58;;;;;;;5.20;3.17;;;;;;;-4.62;67.44;98179.25;6321268;28;20043;-63
2022/10/28 03:25:03;;;;;;;5.07;3.47;;;;;;;-4.73;67.39;98173.94;6321092;28;20396;-63
2022/10/28 03:28:06;;;;;;;5.00;2.85;;;;;;;-4.61;66.92;98181.84;6320849;28;20052;-63
2022/10/28 03:31:10;;;;;;;5.38;3.10;;;;;;;-4.70;66.41;98166.28;6320223;28;20044;-64
2022/10/28 03:34:11;;;;;;;6.78;3.38;;;;;;;-4.62;66.52;98177.53;6320833;28;20047;-64
2022/10/28 03:37:13;;;;;;;5.82;3.25;;;;;;;-4.79;66.88;98176.41;6320594;28;20133;-64
2022/10/28 03:40:17;;;;;;;6.88;3.88;;;;;;;-4.79;66.37;98166.13;6320995;28;20039;-64
2022/10/28 03:43:22;;;;;;;6.07;2.72;;;;;;;-4.60;66.53;98177.59;6336122;28;20504;-64
2022/10/28 03:46:24;;;;;;;8.20;3.63;;;;;;;-4.73;66.75;98181.66;6320349;28;20422;-64
2022/10/28 03:49:25;;;;;;;7.45;3.78;;;;;;;-4.53;66.09;98185.41;6320492;28;20049;-63
2022/10/28 03:52:27;;;;;;;6.10;3.47;;;;;;;-4.60;66.07;98182.72;6320694;28;20145;-63
2022/10/28 03:55:31;;;;;;;16.95;7.40;;;;;;;-4.51;66.33;98188.00;6320328;28;20138;-64
2022/10/28 03:58:38;;;;;;;12.32;5.43;;;;;;;-4.30;65.91;98197.75;6320680;28;20051;-63
2022/10/28 04:01:42;;;;;;;7.40;4.90;;;;;;;-4.08;64.86;98194.66;6319881;28;20510;-63
2022/10/28 04:04:46;;;;;;;6.57;4.68;;;;;;;-4.13;65.06;98180.88;6320142;28;20058;-64
2022/10/28 04:07:53;;;;;;;7.68;4.20;;;;;;;-4.10;65.54;98186.06;6320449;28;20040;-64
2022/10/28 04:10:57;;;;;;;6.00;3.65;;;;;;;-3.95;65.30;98180.25;6319872;28;20503;-64
2022/10/28 04:13:58;;;;;;;4.45;3.40;;;;;;;-3.67;64.63;98191.75;6319873;28;20434;-64
2022/10/28 04:17:03;;;;;;;5.70;3.28;;;;;;;-3.53;64.29;98196.22;6318872;28;20115;-63
2022/10/28 04:20:10;;;;;;;6.82;3.20;;;;;;;-3.47;63.88;98194.56;6320052;28;20232;-63
2022/10/28 04:23:19;;;;;;;7.57;3.88;;;;;;;-3.39;63.95;98197.25;6319764;28;20051;-65
2022/10/28 04:26:30;;;;;;;4.88;2.83;;;;;;;-3.19;63.45;98190.59;6320412;28;20510;-64
2022/10/28 04:29:36;;;;;;;5.10;3.40;;;;;;;-3.14;63.48;98197.50;6320170;28;20068;-63
2022/10/28 04:32:41;;;;;;;5.55;3.50;;;;;;;-2.95;62.73;98189.97;6319498;28;20066;-63
2022/10/28 04:35:42;;;;;;;6.93;3.10;;;;;;;-2.91;62.62;98196.03;6320015;28;20052;-64
2022/10/28 04:38:46;;;;;;;6.60;3.63;;;;;;;-2.80;62.29;98196.09;6320041;28;20509;-64
2022/10/28 04:41:51;;;;;;;5.55;3.17;;;;;;;-2.62;62.28;98185.97;6319726;28;20044;-63
2022/10/28 04:44:58;;;;;;;5.82;3.50;;;;;;;-2.41;61.89;98189.56;6317887;28;20048;-65
2022/10/28 04:48:02;;;;;;;4.55;2.80;;;;;;;-2.13;61.61;98198.38;6319753;28;20059;-64
2022/10/28 04:51:06;;;;;;;3.78;2.90;;;;;;;-1.88;61.50;98189.94;6319531;28;20067;-63
2022/10/28 04:54:10;;;;;;;5.60;2.90;;;;;;;-1.53;60.77;98196.97;6319570;28;20079;-63
2022/10/28 04:57:14;;;;;;;6.28;3.42;;;;;;;-1.24;59.90;98178.16;6318103;28;20040;-63
2022/10/28 05:00:15;;;;;;;5.80;3.60;;;;;;;-1.03;59.45;98188.53;6321985;28;20047;-64
2022/10/28 05:03:22;;;;;;;7.75;3.50;;;;;;;-0.79;58.88;98182.56;6324526;28;20127;-63
2022/10/28 05:06:23;;;;;;;7.35;4.22;;;;;;;-0.44;59.15;98188.59;6323144;28;20427;-64
2022/10/28 05:09:24;;;;;;;7.85;4.00;;;;;;;0.48;57.54;98191.00;6324126;28;20068;-63
2022/10/28 05:12:28;;;;;;;3.55;3.03;;;;;;;3.22;51.49;98192.88;6324204;28;20044;-63
2022/10/28 05:15:32;;;;;;;3.85;2.97;;;;;;;5.73;46.73;98190.63;6323486;28;20800;-63
2022/10/28 05:18:39;;;;;;;5.00;4.10;;;;;;;7.82;42.08;98198.66;6324114;28;20503;-64
2022/10/28 05:21:43;;;;;;;5.20;3.03;;;;;;;8.84;38.80;98193.41;6323907;28;20044;-63
2022/10/28 05:24:47;;;;;;;3.83;2.30;;;;;;;9.87;37.69;98187.63;6323340;28;20059;-63
2022/10/28 05:27:54;;;;;;;2.97;1.90;;;;;;;11.34;35.42;98192.66;6323916;28;20423;-64
2022/10/28 05:30:55;;;;;;;2.75;2.15;;;;;;;12.22;32.52;98197.22;6323540;28;20051;-64
2022/10/28 05:34:01;;;;;;;3.92;2.25;;;;;;;12.46;31.94;98190.69;6323583;28;20490;-63
2022/10/28 05:37:07;;;;;;;3.13;2.17;;;;;;;12.26;31.68;98198.78;6323234;28;20086;-64
2022/10/28 05:40:10;;;;;;;2.45;2.00;;;;;;;12.56;31.91;98202.47;6323320;28;20040;-63
2022/10/28 05:43:13;;;;;;;3.45;1.83;;;;;;;13.65;29.42;98193.16;6323126;28;20052;-63
2022/10/28 05:46:15;;;;;;;4.05;1.65;;;;;;;13.82;28.50;98195.69;6323256;28;20404;-62
2022/10/28 05:49:19;;;;;;;2.08;1.75;;;;;;;13.76;28.91;98197.81;6322846;28;20531;-64
2022/10/28 05:52:25;;;;;;;2.58;1.80;;;;;;;13.95;27.47;98192.34;6322295;28;20392;-63
2022/10/28 05:55:28;;;;;;;;;;;;;;;15.18;26.26;98193.84;6323431;28;20085;-64
2022/10/28 05:58:35;;;;;;;1.30;1.13;;;;;;;14.35;26.08;98186.44;6322545;28;19923;-63
2022/10/28 06:01:39;;;;;;;2.72;1.48;;;;;;;15.02;26.44;98188.63;6323128;28;20040;-63
2022/10/28 06:04:43;;;;;;;3.40;1.83;;;;;;;14.36;26.98;98185.50;6323033;28;20495;-62
2022/10/28 06:07:45;;;;;;;2.22;1.20;;;;;;;12.59;27.85;98180.34;6323015;28;20048;-63
2022/10/28 06:10:53;;;;;;;1.40;1.25;;;;;;;10.79;30.44;98186.38;6320654;28;20048;-64
2022/10/28 06:14:02;;;;;;;2.38;1.80;;;;;;;9.76;32.53;98197.72;6322987;28;20036;-63
2022/10/28 06:17:08;;;;;;;1.85;1.45;;;;;;;9.23;33.21;98192.84;6323060;28;20124;-63
2022/10/28 06:20:12;;;;;;;2.70;1.58;;;;;;;8.58;34.58;98177.75;6322733;28;20044;-64
2022/10/28 06:23:16;;;;;;;4.43;1.92;;;;;;;8.69;34.23;98175.59;6321230;28;20201;-65
2022/10/28 06:26:20;;;;;;;2.05;1.23;;;;;;;8.93;33.36;98166.81;6322465;28;20098;-64
2022/10/28 06:29:26;;;;;;;2.78;1.10;;;;;;;8.76;33.95;98182.34;6321399;28;20051;-65
2022/10/28 06:32:32;;;;;;;1.55;1.45;;;;;;;9.09;33.77;98179.38;6322298;28;20044;-64
2022/10/28 06:35:37;;;;;;;2.83;1.48;;;;;;;9.40;32.84;98174.66;6322470;28;20524;-64
2022/10/28 06:38:41;;;;;;;2.25;1.52;;;;;;;9.06;33.50;98184.72;6321933;28;20052;-64
2022/10/28 06:41:45;;;;;;;2.10;1.88;;;;;;;8.37;34.33;98190.69;6321549;28;20048;-64
2022/10/28 06:44:51;;;;;;;1.45;1.13;;;;;;;8.26;35.20;98187.56;6322040;28;20419;-63
2022/10/28 06:48:03;;;;;;;2.33;1.33;;;;;;;8.05;35.41;98179.53;6320324;28;20044;-64
2022/10/28 06:51:13;;;;;;;1.55;1.05;;;;;;;8.08;35.55;98176.81;6321650;28;20074;-63
2022/10/28 06:54:16;;;;;;;2.60;1.60;;;;;;;8.41;35.00;98181.00;6321731;28;20040;-64
2022/10/28 06:57:20;;;;;;;2.55;1.50;;;;;;;8.63;34.80;98170.56;6322158;28;20039;-64
2022/10/28 07:00:25;;;;;;;2.33;1.40;;;;;;;9.05;34.12;98172.53;6322010;28;20036;-63
2022/10/28 07:03:34;;;;;;;2.13;1.33;;;;;;;9.35;33.30;98173.97;6321690;28;20044;-64
2022/10/28 07:06:41;;;;;;;1.48;1.00;;;;;;;9.90;33.21;98174.38;6321738;28;20048;-64
2022/10/28 07:09:43;;;;;;;1.60;1.30;;;;;;;10.19;31.66;98169.69;6321553;28;20193;-63
2022/10/28 07:12:45;;;;;;;1.27;1.15;;;;;;;10.33;31.82;98182.25;6321096;28;20140;-63
2022/10/28 07:15:56;;;;;;;2.30;1.45;;;;;;;10.79;31.43;98165.31;6321198;28;20036;-65
2022/10/28 07:19:01;;;;;;;2.72;1.48;;;;;;;10.50;31.47;98163.09;6320856;28;20040;-64
2022/10/28 07:22:05;;;;;;;1.52;1.02;;;;;;;10.44;31.69;98163.38;6320826;28;20503;-63
2022/10/28 07:25:09;;;;;;;1.67;1.17;;;;;;;10.59;31.31;98162.72;6321202;28;20036;-63
2022/10/28 07:28:15;;;;;;;2.33;1.58;;;;;;;10.39;31.72;98144.28;6320488;28;20177;-64
2022/10/28 07:31:19;;;;;;;2.90;1.88;;;;;;;11.26;30.72;98147.38;6320153;28;20040;-63
2022/10/28 07:34:26;;;;;;;3.95;2.50;;;;;;;11.88;29.40;98151.41;6321074;28;20040;-63
2022/10/28 07:37:30;;;;;;;2.08;1.85;;;;;;;12.52;28.36;98142.84;6320493;28;20473;-64
2022/10/28 07:40:31;;;;;;;;;;;;;;;13.18;26.63;98146.38;6320881;28;20101;-63
2022/10/28 07:43:37;;;;;;;1.42;1.33;;;;;;;12.53;27.14;98149.84;6320229;28;20476;-63
2022/10/28 07:46:40;;;;;;;2.08;1.50;;;;;;;12.28;27.36;98133.56;6320229;28;20044;-64
2022/10/28 07:49:47;;;;;;;2.45;1.75;;;;;;;12.46;27.02;98137.91;6320953;28;20048;-64
2022/10/28 07:52:51;;;;;;;2.17;1.40;;;;;;;12.26;26.90;98140.72;6320679;28;20040;-64
2022/10/28 07:55:59;;;;;;;3.72;1.40;;;;;;;11.56;27.50;98138.00;6320597;28;20051;-64
2022/10/28 07:59:05;;;;;;;1.17;1.08;;;;;;;11.22;28.25;98139.63;6320457;28;20043;-64
2022/10/28 08:02:06;;;;;;;1.70;1.42;;;;;;;11.36;28.12;98130.22;6320143;28;20052;-64
2022/10/28 08:05:14;;;;;;;1.95;1.58;;;;;;;11.58;28.18;98133.53;6320543;28;20048;-64
2022/10/28 08:08:18;;;;;;;2.45;1.60;;;;;;;11.69;27.95;98135.59;6320435;28;20063;-64
2022/10/28 08:11:24;;;;;;;1.83;1.30;;;;;;;11.54;27.43;98131.94;6320251;28;20051;-63
2022/10/28 08:14:28;;;;;;;3.47;1.42;;;;;;;11.40;27.81;98129.13;6320216;28;20036;-63
2022/10/28 08:17:33;;;;;;;5.78;1.80;;;;;;;12.13;27.31;98138.69;6319340;28;20460;-62
2022/10/28 08:20:37;;;;;;;2.00;1.40;;;;;;;12.65;26.49;98106.06;6320127;28;20442;-64
2022/10/28 08:23:40;;;;;;;1.40;1.30;;;;;;;12.84;25.98;98111.22;6319873;28;20044;-63
2022/10/28 08:26:41;;;;;;;1.08;0.98;;;;;;;12.90;25.97;98104.75;6319653;28;20044;-64
2022/10/28 08:29:45;;;;;;;0.88;0.80;;;;;;;13.01;25.66;98108.53;6320111;28;20058;-62
2022/10/28 08:32:53;;;;;;;2.35;1.50;;;;;;;13.09;25.99;98104.63;6320426;28;20526;-63
2022/10/28 08:35:54;;;;;;;2.97;1.60;;;;;;;12.89;25.89;98101.28;6323629;28;20134;-63
2022/10/28 08:39:00;;;;;;;2.38;1.17;;;;;;;12.42;26.26;98083.53;6324980;28;20040;-64
2022/10/28 08:42:25;;;;;;;1.50;1.10;;;;;;;11.93;27.10;98086.09;6325053;28;20189;-64
2022/10/28 08:45:48;;;;;;;1.88;1.50;;;;;;;10.89;28.24;98092.00;6324471;28;20557;-64
2022/10/28 08:48:53;;;;;;;1.85;1.35;;;;;;;11.13;28.01;98095.28;6324825;28;20442;-64
2022/10/28 08:52:15;;;;;;;1.80;1.20;;;;;;;11.61;27.65;98096.47;6324966;28;20054;-64
2022/10/28 08:55:32;;;;;;;2.40;2.08;;;;;;;11.79;27.59;98088.56;6324862;28;20514;-64
2022/10/28 08:58:38;;;;;;;2.30;1.50;;;;;;;11.83;27.13;98090.09;6324155;28;20055;-64
2022/10/28 09:01:47;;;;;;;3.05;1.55;;;;;;;11.29;27.89;98086.63;6324685;28;20518;-64
2022/10/28 09:05:00;;;;;;;1.38;1.27;;;;;;;11.18;28.11;98087.13;6323946;28;20052;-64
2022/10/28 09:08:04;;;;;;;1.58;1.25;;;;;;;11.55;27.39;98102.03;6324438;28;20039;-63
2022/10/28 09:11:18;;;;;;;1.75;1.63;;;;;;;11.48;27.89;98090.06;6323765;28;20054;-64
2022/10/28 09:14:55;;;;;;;4.33;1.97;;;;;;;11.30;27.93;98080.44;6324404;28;20539;-64
2022/10/28 09:18:07;;;;;;;2.67;1.52;;;;;;;11.07;28.07;98074.50;6319810;28;20048;-64
2022/10/28 09:21:18;;;;;;;1.90;1.60;;;;;;;10.58;28.94;98066.25;6323932;28;20054;-64
2022/10/28 09:24:47;;;;;;;1.77;1.45;;;;;;;10.31;29.43;98068.38;6324239;28;20410;-64
2022/10/28 09:28:00;;;;;;;2.10;1.67;;;;;;;9.06;31.09;98066.56;6323724;28;20181;-65
2022/10/28 09:31:23;;;;;;;2.17;1.48;;;;;;;8.23;32.01;98061.81;6339001;28;20048;-64
2022/10/28 09:34:35;;;;;;;2.20;1.90;;;;;;;8.06;32.68;98060.66;6324279;28;20036;-64
2022/10/28 09:37:43;;;;;;;2.40;1.88;;;;;;;8.28;32.29;98062.53;6323743;28;20048;-63
2022/10/28 09:40:51;;;;;;;2.78;1.73;;;;;;;8.63;31.74;98055.13;6322024;28;20048;-63
2022/10/28 09:44:11;;;;;;;2.33;1.63;;;;;;;8.98;31.26;98041.50;6338375;28;20047;-64
2022/10/28 09:47:28;;;;;;;1.70;1.60;;;;;;;9.21;30.95;98051.06;6323386;28;20044;-64
2022/10/28 09:50:32;;;;;;;1.88;1.35;;;;;;;9.08;30.77;98056.88;6323279;28;20044;-63
2022/10/28 09:53:46;;;;;;;3.42;1.35;;;;;;;8.79;31.24;98061.50;6323045;28;20105;-64
2022/10/28 09:56:55;;;;;;;2.88;2.08;;;;;;;8.26;31.84;98045.97;6323373;28;20427;-63
2022/10/28 09:59:59;;;;;;;3.88;2.35;;;;;;;8.07;32.04;98030.94;6322942;28;20457;-64
2022/10/28 10:03:01;;;;;;;2.75;2.17;;;;;;;7.91;32.41;98039.41;6322346;28;20063;-64
2022/10/28 10:06:12;;;;;;;3.60;2.03;;;;;;;8.00;32.92;98039.91;6322731;28;20109;-64
2022/10/28 10:09:38;;;;;;;3.38;2.65;;;;;;;7.90;33.19;98030.69;6322798;28;20135;-66
2022/10/28 10:12:43;;;;;;;3.08;2.47;;;;;;;8.07;32.90;98041.41;6322964;28;20049;-65
2022/10/28 10:15:57;;;;;;;2.20;2.00;;;;;;;8.23;32.95;98038.22;6322535;28;20055;-63
2022/10/28 10:19:05;;;;;;;2.28;1.60;;;;;;;8.02;32.99;98032.88;6323034;28;20499;-65
2022/10/28 10:22:26;;;;;;;2.88;2.25;;;;;;;7.82;33.46;98024.88;6321711;28;20060;-64
2022/10/28 10:25:31;;;;;;;3.00;1.85;;;;;;;7.39;33.85;98029.81;6322141;28;20524;-64
2022/10/28 10:28:44;;;;;;;2.95;1.80;;;;;;;7.23;34.38;98030.38;6321894;28;20048;-63
2022/10/28 10:32:02;;;;;;;3.22;2.75;;;;;;;6.83;35.09;98021.19;6322337;28;20052;-64
2022/10/28 10:35:23;;;;;;;3.20;2.88;;;;;;;7.28;34.89;98028.47;6322425;28;20131;-64
2022/10/28 10:38:28;;;;;;;4.70;3.13;;;;;;;7.47;34.65;98026.91;6322406;28;20502;-64
2022/10/28 10:41:42;;;;;;;2.70;1.90;;;;;;;7.58;34.46;98022.16;6321373;28;20044;-63
2022/10/28 10:44:57;;;;;;;4.15;2.22;;;;;;;7.12;35.78;98025.50;6337154;28;20048;-64
2022/10/28 10:48:14;;;;;;;5.10;2.60;;;;;;;6.60;36.33;98027.16;6321985;28;20043;-64
2022/10/28 10:51:25;;;;;;;5.63;2.28;;;;;;;5.97;38.13;98021.13;6321889;28;20528;-64
2022/10/28 10:54:35;;;;;;;5.00;3.20;;;;;;;5.45;39.01;98014.66;6321958;28;20040;-64
2022/10/28 10:57:40;;;;;;;3.92;3.17;;;;;;;4.99;39.56;98024.50;6320848;28;20050;-64
2022/10/28 11:00:48;;;;;;;6.50;3.35;;;;;;;4.75;40.16;98018.09;6321730;28;20044;-65
2022/10/28 11:03:58;;;;;;;5.75;4.43;;;;;;;4.38;40.99;98021.53;6321674;28;20048;-64
2022/10/28 11:07:02;;;;;;;4.80;3.15;;;;;;;4.22;41.39;98017.56;6320448;28;20123;-64
2022/10/28 11:10:28;;;;;;;4.18;2.80;;;;;;;3.92;42.30;98019.91;6321295;28;20077;-64
2022/10/28 11:13:34;;;;;;;4.13;2.25;;;;;;;3.80;42.73;98021.00;6321382;28;20040;-63
2022/10/28 11:17:20;;;;;;;4.75;2.47;;;;;;;3.87;43.20;98020.88;6321494;28;20054;-63
2022/10/28 11:20:42;;;;;;;3.30;2.70;;;;;;;3.87;43.43;98006.13;6321362;28;20044;-63
2022/10/28 11:24:25;;;;;;;4.22;3.20;;;;;;;3.84;43.42;98006.19;6320733;28;20040;-64
2022/10/28 11:27:39;;;;;;;3.03;2.70;;;;;;;3.79;43.53;98008.00;6317249;28;20054;-65
2022/10/28 11:31:11;;;;;;;3.95;2.65;;;;;;;3.47;44.15;98001.69;6320749;28;20142;-63
2022/10/28 11:34:25;;;;;;;2.85;2.42;;;;;;;3.14;45.02;98004.00;6320924;28;20051;-63
2022/10/28 11:37:45;;;;;;;3.35;2.72;;;;;;;2.92;45.45;98003.50;6320339;28;20132;-64
2022/10/28 11:40:55;;;;;;;3.22;2.05;;;;;;;2.90;45.48;98004.41;6320814;28;20492;-64
2022/10/28 11:43:59;;;;;;;6.47;3.40;;;;;;;2.44;46.61;98000.78;6320331;28;20047;-64
2022/10/28 11:47:11;;;;;;;4.32;2.25;;;;;;;2.27;47.08;97994.13;6320922;28;20052;-64
2022/10/28 11:50:29;;;;;;;3.50;2.83;;;;;;;1.93;47.80;97991.97;6319316;28;20052;-64
2022/10/28 11:53:35;;;;;;;4.70;2.20;;;;;;;1.88;48.50;97989.41;6320487;28;20055;-65
2022/10/28 11:57:29;;;;;;;2.35;1.60;;;;;;;1.97;48.45;97993.63;6320031;28;20062;-64
2022/10/28 12:00:47;;;;;;;3.00;1.90;;;;;;;1.71;48.45;97994.78;6220680;28;20533;-64
2022/10/28 12:04:19;;;;;;;2.63;2.00;;;;;;;1.56;48.57;97987.19;6319600;28;20047;-64
2022/10/28 12:07:45;;;;;;;4.47;2.90;;;;;;;1.26;49.11;97989.22;6305394;28;20521;-65
2022/10/28 12:11:11;;;;;;;3.95;2.47;;;;;;;1.18;50.11;97991.03;6319624;28;20524;-64
2022/10/28 12:14:28;;;;;;;3.17;2.17;;;;;;;0.84;50.75;97988.75;6320377;28;20039;-63
2022/10/28 12:17:48;;;;;;;2.42;1.95;;;;;;;0.76;51.56;97987.94;6320007;28;20048;-64
2022/10/28 12:21:16;;;;;;;2.63;1.58;;;;;;;0.66;51.95;97982.00;6336113;28;20044;-64
2022/10/28 12:24:23;;;;;;;2.05;1.63;;;;;;;0.73;52.24;97980.19;6319295;28;20150;-64
2022/10/28 12:27:33;;;;;;;3.78;2.70;;;;;;;0.59;52.71;97984.63;6320222;28;20050;-64
2022/10/28 12:30:40;;;;;;;2.15;1.52;;;;;;;0.64;52.26;97993.22;6319150;28;20075;-64
2022/10/28 12:33:47;;;;;;;3.10;2.30;;;;;;;0.31;52.84;97995.19;6319903;28;20052;-65
2022/10/28 12:37:09;;;;;;;4.25;2.20;;;;;;;0.27;53.42;98000.38;6320136;28;20059;-64
2022/10/28 12:40:25;;;;;;;4.20;2.63;;;;;;;0.30;53.51;97993.47;6335677;28;20040;-64
2022/10/28 12:43:39;;;;;;;4.00;2.20;;;;;;;0.19;53.55;97984.88;6320012;28;20495;-63
2022/10/28 12:46:56;;;;;;;4.20;2.63;;;;;;;0.16;54.06;97984.91;6318887;28;20044;-63
2022/10/28 12:50:36;;;;;;;2.00;1.65;;;;;;;-0.10;54.50;97988.50;6320062;28;20040;-64
2022/10/28 12:53:55;;;;;;;5.25;3.22;;;;;;;-0.05;53.97;97985.91;6320076;28;20044;-64
2022/10/28 12:57:11;;;;;;;6.97;2.40;;;;;;;-0.03;54.79;97992.78;6318871;28;20565;-63
2022/10/28 13:00:42;;;;;;;2.53;1.17;;;;;;;-0.19;55.88;98006.66;6319987;28;20036;-65
2022/10/28 13:03:48;;;;;;;3.65;2.80;;;;;;;-0.46;55.99;97995.53;6318333;28;20074;-64
2022/10/28 13:07:21;;;;;;;3.25;2.60;;;;;;;-0.55;56.26;98000.72;6319279;28;20044;-64
2022/10/28 13:10:54;;;;;;;3.72;2.47;;;;;;;-0.71;56.80;97993.88;6317975;28;20135;-64
2022/10/28 13:14:26;;;;;;;4.50;3.33;;;;;;;-0.88;56.96;97998.22;6319553;28;20123;-63
2022/10/28 13:17:33;;;;;;;4.97;3.40;;;;;;;-0.81;57.97;98002.53;6319192;28;20151;-64
2022/10/28 13:21:10;;;;;;;3.22;2.45;;;;;;;-0.72;57.35;98002.50;6322678;28;20044;-65
2022/10/28 13:24:14;;;;;;;4.63;3.00;;;;;;;-0.82;57.51;98000.78;6324090;28;20139;-63
2022/10/28 13:27:15;;;;;;;;;;;;;;;-0.69;57.53;98002.50;6324164;28;20056;-63
2022/10/28 13:30:21;;;;;;;4.05;2.78;;;;;;;-0.93;58.71;97993.06;6322285;28;19920;-63
2022/10/28 13:33:32;;;;;;;5.05;2.78;;;;;;;-1.02;58.94;97999.13;6323828;28;20065;-63
2022/10/28 13:36:41;;;;;;;6.68;4.10;;;;;;;-1.13;59.55;97990.50;6323751;28;20077;-64
2022/10/28 13:39:46;;;;;;;5.60;2.35;;;;;;;-1.04;59.50;97989.63;6324030;28;20414;-65
2022/10/28 13:42:48;;;;;;;5.07;3.47;;;;;;;-1.08;59.65;97993.91;6323338;28;20141;-64
2022/10/28 13:45:54;;;;;;;5.72;3.50;;;;;;;-1.14;59.71;97988.75;6323420;28;20491;-63
2022/10/28 13:49:24;;;;;;;6.35;3.85;;;;;;;-1.20;60.16;97989.63;6323583;28;20039;-64
2022/10/28 13:52:28;;;;;;;7.05;3.75;;;;;;;-1.18;60.51;97990.50;6323194;28;20085;-63
2022/10/28 13:55:41;;;;;;;9.55;4.63;;;;;;;-1.20;60.08;97994.78;6323307;28;20513;-63
2022/10/28 13:58:58;;;;;;;6.30;4.40;;;;;;;-1.31;60.42;97981.03;6322759;28;20044;-63
2022/10/28 14:02:16;;;;;;;7.25;3.70;;;;;;;-1.36;60.82;97987.91;6322572;28;20532;-64
2022/10/28 14:05:47;;;;;;;8.38;5.28;;;;;;;-1.34;60.67;97985.34;6323335;28;20063;-64
2022/10/28 14:08:55;;;;;;;12.90;5.57;;;;;;;-1.29;61.13;97993.94;6322503;28;20047;-64
2022/10/28 14:12:07;;;;;;;12.20;6.05;;;;;;;-1.23;60.83;97992.22;6321857;28;20043;-64
2022/10/28 14:15:14;;;;;;;10.63;5.30;;;;;;;-1.39;61.26;97991.38;6321987;28;20115;-63
2022/10/28 14:18:23;;;;;;;15.40;5.22;;;;;;;-1.48;61.54;97993.94;6322833;28;20445;-63
2022/10/28 14:21:51;;;;;;;9.05;3.72;;;;;;;-1.55;62.16;97988.78;6322488;28;20058;-64
2022/10/28 14:24:56;;;;;;;11.68;5.88;;;;;;;-1.64;61.88;97987.06;6322491;28;20084;-63
2022/10/28 14:28:02;;;;;;;8.18;4.30;;;;;;;-1.56;62.43;97990.47;6322393;28;20058;-64
2022/10/28 14:34:11;;;;;;;12.65;5.97;;;;;;;-1.47;62.17;97987.94;6321984;28;20055;-65
2022/10/28 14:37:32;;;;;;;12.60;6.00;;;;;;;-1.62;62.03;97982.72;6337714;28;20043;-65
2022/10/28 14:40:50;;;;;;;9.38;4.80;;;;;;;-1.69;63.04;97983.59;6321773;28;20047;-64
2022/10/28 14:43:57;;;;;;;11.73;5.95;;;;;;;-1.62;62.55;97990.47;6321739;28;20047;-65
2022/10/28 14:47:12;;;;;;;9.68;5.28;;;;;;;-1.67;62.96;97990.47;6321998;28;20123;-64
2022/10/28 14:50:30;;;;;;;11.07;5.53;;;;;;;-1.73;62.76;97987.88;6321979;28;20044;-64
2022/10/28 14:53:34;;;;;;;8.40;5.18;;;;;;;-1.96;63.53;97969.78;6321621;28;20414;-64
2022/10/28 14:56:39;;;;;;;12.85;5.05;;;;;;;-2.03;63.78;97978.38;6320798;28;20542;-65
2022/10/28 14:59:43;;;;;;;10.02;5.53;;;;;;;-1.99;63.73;97974.06;6321598;28;20125;-64
2022/10/28 15:02:45;;;;;;;9.32;4.75;;;;;;;-2.08;63.94;97969.75;6321651;28;20408;-63